createdAt,value
2019-01-13T00:01:20.495Z,62.77
2019-01-13T00:04:09.802Z,59.07
2019-01-13T00:06:59.257Z,45.87
2019-01-13T00:09:48.525Z,75.93
2019-01-13T00:12:38.169Z,134.10
2019-01-13T00:15:27.430Z,109.93
2019-01-13T00:18:16.906Z,110.80
2019-01-13T00:21:06.759Z,87.23
2019-01-13T00:23:56.438Z,161.53
2019-01-13T00:26:45.722Z,92.07
2019-01-13T00:29:34.798Z,65.00
2019-01-13T00:32:24.106Z,107.50
2019-01-13T00:35:16.728Z,106.73
2019-01-13T00:38:05.592Z,102.40
2019-01-13T00:40:54.565Z,86.73
2019-01-13T00:43:43.814Z,83.70
2019-01-13T00:46:34.530Z,106.50
2019-01-13T00:49:23.831Z,71.60
2019-01-13T00:52:13.496Z,83.03
2019-01-13T00:55:02.989Z,70.77
2019-01-13T00:57:52.157Z,64.03
2019-01-13T01:00:41.659Z,72.83
2019-01-13T01:03:31.038Z,68.70
2019-01-13T01:06:20.351Z,94.80
2019-01-13T01:09:12.549Z,117.40
2019-01-13T01:12:02.092Z,101.77
2019-01-13T01:14:51.772Z,72.27
2019-01-13T01:17:41.443Z,66.03
2019-01-13T01:20:39.665Z,72.40
2019-01-13T01:23:29.365Z,65.07
2019-01-13T01:26:21.371Z,72.87
2019-01-13T01:29:11.000Z,87.07
2019-01-13T01:32:00.550Z,51.20
2019-01-13T01:34:50.002Z,88.27
2019-01-13T01:37:39.026Z,65.57
2019-01-13T01:40:29.063Z,61.87
2019-01-13T01:43:18.710Z,204.90
2019-01-13T01:46:08.077Z,134.80
2019-01-13T01:49:02.041Z,71.40
2019-01-13T08:09:12.623Z,148.10
2019-01-13T08:12:32.501Z,123.53
2019-01-13T08:15:30.654Z,38.13
2019-01-13T08:18:19.825Z,64.07
2019-01-13T08:21:12.940Z,74.77
2019-01-13T08:24:05.680Z,119.73
2019-01-13T08:26:54.863Z,127.30
2019-01-13T08:29:46.839Z,148.43
2019-01-13T08:32:36.283Z,173.23
2019-01-13T08:35:41.757Z,197.73
2019-01-13T08:38:35.610Z,211.87
2019-01-13T08:41:25.145Z,212.37
2019-01-13T08:44:14.467Z,214.20
2019-01-13T08:47:04.295Z,192.73
2019-01-13T08:49:53.370Z,144.70
2019-01-13T08:52:42.732Z,124.70
2019-01-13T08:55:32.108Z,130.03
2019-01-13T08:58:22.028Z,193.50
2019-01-13T09:01:11.648Z,104.73
2019-01-13T09:04:02.002Z,146.17
2019-01-13T09:06:51.427Z,123.57
2019-01-13T09:09:40.337Z,109.53
2019-01-13T09:12:29.645Z,90.70
2019-01-13T09:15:22.943Z,108.80
2019-01-13T09:18:12.067Z,108.43
2019-01-13T09:21:00.868Z,181.30
2019-01-13T09:23:50.179Z,166.97
2019-01-13T09:26:39.376Z,400.03
2019-01-13T09:29:28.440Z,339.70
2019-01-13T09:32:17.812Z,253.67
2019-01-13T09:35:07.813Z,156.47
2019-01-13T09:37:57.385Z,114.73
2019-01-13T09:40:46.784Z,72.07
2019-01-13T09:43:36.505Z,104.30
2019-01-13T09:46:25.748Z,153.10
2019-01-13T09:49:15.155Z,110.20
2019-01-13T09:52:04.683Z,110.90
2019-01-13T09:54:35.576Z,76.80
2019-01-13T09:57:06.438Z,61.43
2019-01-13T09:59:37.404Z,74.60
2019-01-13T10:02:08.309Z,83.00
2019-01-13T10:04:40.298Z,94.93
2019-01-13T10:07:11.750Z,107.50
2019-01-13T10:09:42.608Z,76.37
2019-01-13T10:12:13.478Z,72.33
2019-01-13T10:14:44.383Z,94.13
2019-01-13T10:17:15.262Z,77.63
2019-01-13T10:19:46.121Z,75.80
2019-01-13T10:22:17.082Z,115.97
2019-01-13T10:24:47.952Z,118.97
2019-01-13T10:27:18.831Z,132.87
2019-01-13T10:29:49.726Z,135.77
2019-01-13T10:32:20.603Z,129.70
2019-01-13T10:34:51.464Z,129.23
2019-01-13T10:37:23.035Z,130.37
2019-01-13T10:39:53.914Z,138.53
2019-01-13T10:42:24.784Z,161.83
2019-01-13T10:44:55.691Z,160.40
2019-01-13T10:47:26.555Z,139.63
2019-01-13T10:49:57.428Z,119.20
2019-01-13T10:52:28.428Z,146.60
2019-01-13T10:54:59.302Z,168.53
2019-01-13T10:57:30.149Z,151.47
2019-01-13T11:00:01.117Z,118.83
2019-01-13T11:02:31.996Z,210.23
2019-01-13T11:05:04.306Z,231.83
2019-01-13T11:07:35.235Z,215.03
2019-01-13T11:10:07.466Z,211.00
2019-01-13T11:12:38.390Z,221.00
2019-01-13T11:15:10.292Z,281.23
2019-01-13T11:17:41.163Z,270.37
2019-01-13T11:20:18.144Z,321.23
2019-01-13T11:22:49.116Z,269.17
2019-01-13T11:25:20.405Z,303.90
2019-01-13T11:27:51.350Z,333.93
2019-01-13T11:30:22.988Z,260.83
2019-01-13T11:32:53.889Z,309.27
2019-01-13T11:35:24.799Z,315.53
2019-01-13T11:38:00.437Z,325.57
2019-01-13T11:40:31.464Z,282.50
2019-01-13T11:43:02.333Z,255.47
2019-01-13T11:45:33.229Z,242.10
2019-01-13T11:48:04.602Z,247.77
2019-01-13T11:50:35.540Z,239.43
2019-01-13T11:53:06.547Z,235.13
2019-01-13T11:55:37.465Z,169.00
2019-01-13T11:58:08.342Z,184.37
2019-01-13T12:00:44.469Z,130.23
2019-01-13T12:03:17.105Z,73.63
2019-01-13T12:05:48.895Z,82.33
2019-01-13T12:08:19.927Z,123.70
2019-01-13T12:10:50.789Z,120.93
2019-01-13T12:13:21.661Z,90.27
2019-01-13T12:15:52.740Z,75.10
2019-01-13T12:18:23.611Z,97.50
2019-01-13T12:20:54.556Z,97.03
2019-01-13T12:23:25.566Z,87.37
2019-01-13T12:25:56.433Z,93.90
2019-01-13T12:28:27.291Z,113.00
2019-01-13T12:30:58.185Z,86.63
2019-01-13T12:33:29.058Z,81.10
2019-01-13T12:36:00.000Z,70.37
2019-01-13T12:38:30.933Z,64.83
2019-01-13T12:41:01.803Z,79.17
2019-01-13T12:43:32.729Z,163.37
2019-01-13T12:46:03.692Z,234.10
2019-01-13T12:48:34.632Z,140.57
2019-01-13T12:51:05.706Z,177.63
2019-01-13T12:53:36.645Z,137.80
2019-01-13T12:56:07.514Z,187.10
2019-01-13T12:58:38.465Z,123.27
2019-01-13T13:01:09.628Z,117.70
2019-01-13T13:03:40.496Z,94.33
2019-01-13T13:06:12.289Z,127.50
2019-01-13T13:08:43.170Z,85.50
2019-01-13T13:11:14.050Z,77.10
2019-01-13T13:13:45.012Z,62.70
2019-01-13T13:16:19.138Z,68.77
2019-01-13T13:18:50.017Z,59.50
2019-01-13T13:21:20.928Z,64.80
2019-01-13T13:23:51.786Z,63.33
2019-01-13T13:26:22.624Z,70.80
2019-01-13T13:28:53.538Z,93.80
2019-01-13T13:31:24.394Z,84.83
2019-01-13T13:33:55.286Z,77.20
2019-01-13T13:36:26.344Z,90.77
2019-01-13T13:38:57.193Z,114.00
2019-01-13T13:41:31.190Z,89.17
2019-01-13T13:44:02.150Z,80.93
2019-01-13T13:46:33.002Z,69.83
2019-01-13T13:49:03.876Z,99.87
2019-01-13T13:51:34.828Z,117.27
2019-01-13T13:54:05.891Z,108.80
2019-01-13T13:56:38.719Z,86.17
2019-01-13T13:59:09.718Z,138.07
2019-01-13T14:01:40.602Z,108.53
2019-01-13T14:04:11.475Z,79.17
2019-01-13T14:06:43.644Z,109.70
2019-01-13T14:09:17.942Z,79.83
2019-01-13T14:11:49.039Z,80.70
2019-01-13T14:14:21.505Z,95.03
2019-01-13T14:16:52.604Z,160.33
2019-01-13T14:19:23.581Z,164.70
2019-01-13T14:21:56.445Z,139.10
2019-01-13T14:24:29.690Z,172.73
2019-01-13T14:27:02.389Z,147.13
2019-01-13T14:29:47.413Z,134.47
2019-01-13T14:32:18.611Z,115.10
2019-01-13T14:34:49.652Z,100.20
2019-01-13T14:37:23.839Z,89.70
2019-01-13T14:39:55.082Z,102.47
2019-01-13T14:42:29.233Z,118.63
2019-01-13T14:45:00.623Z,133.53
2019-01-13T14:47:33.447Z,155.03
2019-01-13T14:50:05.503Z,157.50
2019-01-13T14:52:36.618Z,121.63
2019-01-13T14:55:08.429Z,114.63
2019-01-13T14:57:39.381Z,86.33
2019-01-13T15:00:19.374Z,108.07
2019-01-13T15:02:53.238Z,112.37
2019-01-13T15:05:26.718Z,159.30
2019-01-13T15:07:57.903Z,161.53
2019-01-13T15:10:28.771Z,172.07
2019-01-13T15:13:00.406Z,170.13
2019-01-13T15:15:33.216Z,152.03
2019-01-13T15:18:07.337Z,194.93
2019-01-13T15:20:38.222Z,176.20
2019-01-13T15:23:09.325Z,155.73
2019-01-13T15:25:40.214Z,188.20
2019-01-13T15:28:11.092Z,190.20
2019-01-13T15:30:46.887Z,175.40
2019-01-13T15:33:24.723Z,192.53
2019-01-13T15:35:59.635Z,220.93
2019-01-13T15:38:33.169Z,191.73
2019-01-13T15:41:10.330Z,230.10
2019-01-13T15:43:51.482Z,183.33
2019-01-13T15:46:28.565Z,385.10
2019-01-13T15:49:04.071Z,398.40
2019-01-13T15:51:35.547Z,215.17
2019-01-13T15:54:10.107Z,226.97
2019-01-13T15:56:45.490Z,161.93
2019-01-13T15:59:18.962Z,163.73
2019-01-13T16:01:52.076Z,231.97
2019-01-13T16:04:23.481Z,209.63
2019-01-13T16:06:55.000Z,134.70
2019-01-13T16:09:26.357Z,217.87
2019-01-13T16:11:59.894Z,202.97
2019-01-13T16:14:33.932Z,186.77
2019-01-13T16:17:06.619Z,220.97
2019-01-13T16:19:44.692Z,253.37
2019-01-13T16:22:16.402Z,234.37
2019-01-13T16:24:49.265Z,301.20
2019-01-13T16:27:23.131Z,231.93
2019-01-13T16:29:56.104Z,375.20
2019-01-13T16:32:27.542Z,267.80
2019-01-13T16:35:08.532Z,211.53
2019-01-13T16:37:46.133Z,88.10
2019-01-13T16:40:19.733Z,143.17
2019-01-13T16:42:53.924Z,150.30
2019-01-13T16:45:25.629Z,193.87
2019-01-13T16:47:58.268Z,353.13
2019-01-13T16:50:35.522Z,408.30
2019-01-13T16:53:14.718Z,355.60
2019-01-13T16:55:46.564Z,333.17
2019-01-13T16:58:24.162Z,327.10
2019-01-13T17:01:15.527Z,330.40
2019-01-13T17:03:48.460Z,326.63
2019-01-13T17:06:22.500Z,342.30
2019-01-13T17:08:57.259Z,293.87
2019-01-13T17:11:31.259Z,198.93
2019-01-13T17:14:08.346Z,260.53
2019-01-13T17:16:46.463Z,256.47
2019-01-13T17:19:21.392Z,272.83
2019-01-13T17:21:53.372Z,269.57
2019-01-13T17:24:28.138Z,233.33
2019-01-13T17:26:59.538Z,407.13
2019-01-13T17:29:31.080Z,300.70
2019-01-13T17:32:02.018Z,240.70
2019-01-13T17:34:36.325Z,251.17
2019-01-13T17:37:07.219Z,326.73
2019-01-13T17:39:38.185Z,301.27
2019-01-13T17:42:09.684Z,277.60
2019-01-13T17:44:40.674Z,265.33
2019-01-13T17:47:11.660Z,288.93
2019-01-13T17:49:46.777Z,273.67
2019-01-13T17:52:17.819Z,282.57
2019-01-13T17:54:48.975Z,252.57
2019-01-13T17:57:20.711Z,284.92
2019-01-13T17:59:51.619Z,256.13
2019-01-13T18:02:22.516Z,247.67
2019-01-13T18:04:53.457Z,264.40
2019-01-13T18:07:24.360Z,273.93
2019-01-13T18:10:00.736Z,225.33
2019-01-13T18:12:31.719Z,223.33
2019-01-13T18:15:02.620Z,263.00
2019-01-13T18:17:33.525Z,293.80
2019-01-13T18:20:05.670Z,364.67
2019-01-13T18:22:36.563Z,346.70
2019-01-13T18:25:07.810Z,438.87
2019-01-13T18:32:00.594Z,402.37
2019-01-13T18:34:31.498Z,589.30
2019-01-13T18:37:02.405Z,490.73
2019-01-13T18:39:33.381Z,460.20
2019-01-13T18:42:04.446Z,528.10
2019-01-13T18:44:35.341Z,474.17
2019-01-13T18:47:06.403Z,470.70
2019-01-13T18:49:37.397Z,492.57
2019-01-13T18:52:08.307Z,386.00
2019-01-13T18:54:39.322Z,258.93
2019-01-13T18:57:10.261Z,204.77
2019-01-13T18:59:41.167Z,235.00
2019-01-13T19:02:12.248Z,222.50
2019-01-13T19:04:43.122Z,207.57
2019-01-13T19:07:13.995Z,213.10
2019-01-13T19:09:44.935Z,241.27
2019-01-13T19:12:15.832Z,301.53
2019-01-13T19:14:53.267Z,529.27
2019-01-13T19:17:26.382Z,453.27
2019-01-13T19:20:29.526Z,503.73
2019-01-13T19:23:09.896Z,490.13
2019-01-13T19:25:41.349Z,508.40
2019-01-13T19:28:12.240Z,460.63
2019-01-13T19:30:43.213Z,455.97
2019-01-13T19:33:14.194Z,438.80
2019-01-13T19:35:45.065Z,405.37
2019-01-13T19:38:16.026Z,385.07
2019-01-13T19:40:46.948Z,400.03
2019-01-13T19:43:17.917Z,400.90
2019-01-13T19:45:54.839Z,489.63
2019-01-13T19:48:25.844Z,374.13
2019-01-13T19:50:56.956Z,378.27
2019-01-13T19:53:28.233Z,396.33
2019-01-13T19:55:59.172Z,291.53
2019-01-13T19:58:30.169Z,398.43
2019-01-13T20:01:01.164Z,354.63
2019-01-13T20:03:32.987Z,357.07
2019-01-13T20:06:04.049Z,548.27
2019-01-13T20:08:35.087Z,392.53
2019-01-13T20:11:09.988Z,439.00
2019-01-13T20:13:41.048Z,447.27
2019-01-13T20:16:12.250Z,346.00
2019-01-13T20:18:44.254Z,336.20
2019-01-13T20:21:15.507Z,329.80
2019-01-13T20:23:46.612Z,338.17
2019-01-13T20:26:22.701Z,348.90
2019-01-13T20:28:54.772Z,366.43
2019-01-13T20:31:25.743Z,349.23
2019-01-13T20:33:59.834Z,369.10
2019-01-13T20:36:35.455Z,351.57
2019-01-13T20:39:13.369Z,376.87
2019-01-13T20:41:46.089Z,344.10
2019-01-13T20:44:17.274Z,336.73
2019-01-13T20:46:49.950Z,246.80
2019-01-13T20:49:21.267Z,238.67
2019-01-13T20:51:52.809Z,298.57
2019-01-13T20:54:25.260Z,255.13
2019-01-13T20:56:56.418Z,293.70
2019-01-13T20:59:45.826Z,259.03
2019-01-13T21:02:35.920Z,245.70
2019-01-13T21:05:26.799Z,248.23
2019-01-13T21:08:19.006Z,283.63
2019-01-13T21:11:08.823Z,263.83
2019-01-13T21:13:58.215Z,240.00
2019-01-13T21:16:47.354Z,196.57
2019-01-13T21:19:38.661Z,260.40
2019-01-13T21:22:27.879Z,200.33
2019-01-13T21:25:17.676Z,203.70
2019-01-13T21:28:07.471Z,223.30
2019-01-13T21:31:03.519Z,276.37
2019-01-13T21:33:53.025Z,334.47
2019-01-13T21:36:42.177Z,268.13
2019-01-13T21:39:31.294Z,263.27
2019-01-13T21:42:21.289Z,214.80
2019-01-13T21:45:13.148Z,208.20
2019-01-13T21:48:03.077Z,187.00
2019-01-13T21:50:52.469Z,227.27
2019-01-13T21:53:43.216Z,229.57
2019-01-13T21:56:36.315Z,275.20
2019-01-13T21:59:25.755Z,211.60
2019-01-13T22:02:14.565Z,279.93
2019-01-13T22:05:03.503Z,377.53
2019-01-13T22:07:53.275Z,274.57
2019-01-13T22:10:42.167Z,227.97
2019-01-13T22:13:31.614Z,254.13
2019-01-13T22:16:20.900Z,281.23
2019-01-13T22:19:10.219Z,250.73
2019-01-13T22:22:00.332Z,232.73
2019-01-13T22:24:49.709Z,204.53
2019-01-13T22:27:39.433Z,258.67
2019-01-13T22:30:28.626Z,210.17
2019-01-13T22:33:19.122Z,156.50
2019-01-13T22:36:08.807Z,138.27
2019-01-13T22:38:57.948Z,110.90
2019-01-13T22:41:47.402Z,193.43
2019-01-13T22:44:37.073Z,149.70
2019-01-13T22:47:26.309Z,140.93
2019-01-13T22:50:16.368Z,167.17
2019-01-13T22:53:05.985Z,138.77
2019-01-13T22:55:55.236Z,128.97
2019-01-13T22:58:44.834Z,106.73
2019-01-13T23:01:42.036Z,110.00
2019-01-13T23:04:32.065Z,95.33
2019-01-13T23:07:21.266Z,113.07
2019-01-13T23:10:10.601Z,97.07
2019-01-13T23:12:59.719Z,134.87
2019-01-13T23:15:49.653Z,116.50
2019-01-13T23:18:41.046Z,121.20
2019-01-13T23:21:31.059Z,118.83
2019-01-13T23:27:17.017Z,116.83
2019-01-13T23:30:07.739Z,165.40
2019-01-13T23:33:00.846Z,157.30
2019-01-13T23:35:52.300Z,145.37
2019-01-13T23:38:45.548Z,199.83
2019-01-13T23:41:35.441Z,160.57
2019-01-13T23:44:25.054Z,125.87
2019-01-13T23:47:15.132Z,132.23
2019-01-13T23:50:05.351Z,66.30
2019-01-13T23:52:55.056Z,115.77
2019-01-13T23:55:45.469Z,90.23
2019-01-13T23:58:36.283Z,101.20
